Time;durP1;ratioP1;P1;durP2;ratioP2;P2;SDS_P1;SDS_P2;PMS_P1;PMS_P2;Temp;Humidity;BMP_temperature;BMP_pressure;BME280_temperature;BME280_humidity;BME280_pressure;Samples;Min_cycle;Max_cycle;Signal;HPM_P1;HPM_P2
2022/08/08 04:02:17;;;;;;;2.27;1.93;;;8.50;96.30;;;;;;5181977;23;21011;-79
2022/08/08 04:04:43;;;;;;;2.97;2.13;;;8.60;96.30;;;;;;4957433;28;20418;-78
2022/08/08 04:07:09;;;;;;;2.87;2.30;;;8.90;96.30;;;;;;4976228;28;20406;-78
2022/08/08 04:09:35;;;;;;;6.33;2.00;;;9.40;96.30;;;;;;4969841;28;20945;-79
2022/08/08 04:12:00;;;;;;;8.13;1.90;;;9.90;96.30;;;;;;4957117;29;20469;-79
2022/08/08 04:14:27;;;;;;;2.03;1.70;;;10.50;96.30;;;;;;4956479;29;20179;-79
2022/08/08 04:16:52;;;;;;;2.30;1.50;;;11.00;96.30;;;;;;4956822;29;20179;-78
2022/08/08 04:19:17;;;;;;;2.17;1.50;;;11.20;96.30;;;;;;4972349;28;20984;-77
2022/08/08 04:21:43;;;;;;;6.97;1.27;;;11.10;96.30;;;;;;4976642;28;20300;-78
2022/08/08 04:24:08;;;;;;;6.20;1.60;;;11.00;96.30;;;;;;4975452;28;20175;-79
2022/08/08 04:26:34;;;;;;;4.90;1.47;;;11.10;96.30;;;;;;4977370;28;20175;-78
2022/08/08 04:28:59;;;;;;;4.10;1.90;;;11.70;96.30;;;;;;4975337;28;20170;-79
2022/08/08 04:31:25;;;;;;;6.47;2.20;;;12.10;96.30;;;;;;4977777;28;20269;-78
2022/08/08 04:33:51;;;;;;;2.87;1.47;;;12.90;96.30;;;;;;4976390;28;20650;-79
2022/08/08 04:36:16;;;;;;;11.93;1.50;;;14.00;96.30;;;;;;4962267;28;20189;-79
2022/08/08 04:38:41;;;;;;;1.30;1.20;;;14.70;96.30;;;;;;4958283;29;20210;-79
2022/08/08 04:41:07;;;;;;;2.30;1.40;;;15.30;96.30;;;;;;4969981;28;20202;-79
2022/08/08 04:43:33;;;;;;;3.57;1.43;;;16.00;96.30;;;;;;4978880;28;20206;-79
2022/08/08 04:45:58;;;;;;;1.63;1.13;;;16.90;96.30;;;;;;4978471;28;20274;-79
2022/08/08 04:48:24;;;;;;;2.20;1.40;;;17.80;93.20;;;;;;4977195;28;20256;-80
2022/08/08 04:50:49;;;;;;;1.57;1.30;;;18.20;92.10;;;;;;4976795;28;20201;-79
2022/08/08 04:53:15;;;;;;;2.23;1.37;;;18.60;89.70;;;;;;4978509;28;20236;-79
2022/08/08 04:55:40;;;;;;;2.27;1.53;;;18.30;90.80;;;;;;4978902;28;20519;-79
2022/08/08 04:58:06;;;;;;;1.60;1.20;;;18.60;90.40;;;;;;4978013;28;20180;-79
2022/08/08 05:00:32;;;;;;;7.07;1.43;;;18.60;89.40;;;;;;4977842;28;20214;-79
2022/08/08 05:02:57;;;;;;;3.13;1.30;;;18.40;90.80;;;;;;4976911;28;20214;-79
2022/08/08 05:05:24;;;;;;;2.23;1.40;;;18.70;89.00;;;;;;4977326;28;20202;-79
2022/08/08 05:07:49;;;;;;;1.60;1.17;;;18.40;90.30;;;;;;4977688;28;20418;-77
2022/08/08 05:10:15;;;;;;;2.20;1.23;;;18.90;89.10;;;;;;4964121;28;20183;-79
2022/08/08 05:12:41;;;;;;;4.30;1.40;;;18.90;88.20;;;;;;4958712;29;20186;-79
2022/08/08 05:15:07;;;;;;;4.33;1.43;;;18.60;89.20;;;;;;4958073;29;20221;-79
2022/08/08 05:17:32;;;;;;;2.20;1.30;;;17.40;92.30;;;;;;4958827;29;20183;-79
2022/08/08 05:19:58;;;;;;;2.20;1.20;;;16.60;95.30;;;;;;4956727;29;20209;-77
2022/08/08 05:22:26;;;;;;;1.63;1.50;;;16.20;96.30;;;;;;4958679;29;20202;-78
2022/08/08 05:24:52;;;;;;;2.73;1.43;;;15.60;96.30;;;;;;4958211;29;20418;-79
2022/08/08 05:27:17;;;;;;;1.60;1.17;;;15.20;96.30;;;;;;4960144;29;20414;-78
2022/08/08 05:29:43;;;;;;;1.93;1.60;;;14.90;96.30;;;;;;4959854;29;20171;-78
2022/08/08 05:32:09;;;;;;;1.80;1.30;;;14.70;96.30;;;;;;4958015;28;20542;-79
2022/08/08 05:34:40;;;;;;;3.73;1.97;;;14.60;96.30;;;;;;4953972;29;20183;-80
2022/08/08 05:37:06;;;;;;;4.33;1.20;;;14.60;96.30;;;;;;4955192;29;20189;-80
2022/08/08 05:39:32;;;;;;;6.33;1.67;;;14.70;96.30;;;;;;4954067;29;20461;-80
2022/08/08 05:41:59;;;;;;;3.30;1.70;;;15.40;96.30;;;;;;4972849;28;20505;-80
2022/08/08 05:44:42;;;;;;;3.67;1.30;;;17.00;96.30;;;;;;4974241;28;20547;-80
2022/08/08 05:47:08;;;;;;;2.90;1.30;;;18.40;93.70;;;;;;4974590;28;20949;-80
2022/08/08 05:49:35;;;;;;;6.63;1.60;;;20.30;87.20;;;;;;4973205;28;20444;-80
2022/08/08 05:52:01;;;;;;;3.47;1.30;;;20.90;85.00;;;;;;4973736;28;20525;-80
2022/08/08 05:54:27;;;;;;;2.77;1.70;;;21.80;82.30;;;;;;4973643;28;20441;-80
2022/08/08 05:56:54;;;;;;;2.30;1.57;;;22.40;79.90;;;;;;4974044;28;20410;-80
2022/08/08 05:59:23;;;;;;;2.00;1.10;;;23.30;78.10;;;;;;4972238;28;20182;-80
2022/08/08 06:01:55;;;;;;;9.80;1.60;;;23.70;76.00;;;;;;4973515;28;20471;-80
2022/08/08 06:04:28;;;;;;;1.23;1.13;;;23.40;76.50;;;;;;4973502;28;20414;-80
2022/08/08 06:06:56;;;;;;;2.20;1.50;;;23.90;76.00;;;;;;4973919;28;20461;-79
2022/08/08 06:09:27;;;;;;;3.40;1.50;;;25.00;73.00;;;;;;4964747;28;20500;-80
2022/08/08 06:11:58;;;;;;;3.60;1.53;;;24.80;73.10;;;;;;4952811;29;20444;-78
2022/08/08 06:14:25;;;;;;;1.83;1.23;;;24.30;73.90;;;;;;4954488;29;20411;-78
2022/08/08 06:16:52;;;;;;;1.53;1.17;;;24.90;73.40;;;;;;4954254;29;20417;-78
2022/08/08 06:19:18;;;;;;;2.10;1.47;;;24.80;72.90;;;;;;4953788;29;20424;-78
2022/08/08 06:21:47;;;;;;;2.00;1.37;;;25.00;72.80;;;;;;4953865;29;20517;-79
2022/08/08 06:24:13;;;;;;;3.73;1.80;;;25.40;72.80;;;;;;4954052;29;20414;-80
2022/08/08 06:26:42;;;;;;;2.40;1.27;;;25.20;72.90;;;;;;4954208;29;20425;-80
2022/08/08 06:29:10;;;;;;;4.20;1.57;;;26.10;70.20;;;;;;4952283;29;20269;-81
2022/08/08 06:31:37;;;;;;;2.70;1.30;;;26.50;70.00;;;;;;4953957;29;20436;-80
2022/08/08 06:34:17;;;;;;;2.07;1.37;;;26.60;69.20;;;;;;4952601;29;20426;-81
2022/08/08 06:36:44;;;;;;;1.67;1.40;;;26.50;68.80;;;;;;4953997;29;20422;-81
2022/08/08 06:39:15;;;;;;;2.67;1.50;;;27.40;67.50;;;;;;4951931;29;20418;-81
2022/08/08 06:41:48;;;;;;;9.57;1.60;;;27.70;66.30;;;;;;4969746;28;20463;-80
2022/08/08 06:44:16;;;;;;;1.70;1.20;;;27.50;66.70;;;;;;4975271;28;20417;-81
2022/08/08 06:46:43;;;;;;;6.20;1.83;;;28.10;65.40;;;;;;4975758;28;20783;-81
2022/08/08 06:49:09;;;;;;;5.77;1.70;;;28.30;64.90;;;;;;4976266;28;20528;-81
2022/08/08 06:51:34;;;;;;;2.70;1.60;;;28.60;64.70;;;;;;4976830;28;20876;-80
2022/08/08 06:54:01;;;;;;;1.93;1.20;;;29.70;62.00;;;;;;4975700;28;20456;-80
2022/08/08 06:56:29;;;;;;;1.90;1.20;;;29.30;62.90;;;;;;4976838;28;20242;-80
2022/08/08 06:58:54;;;;;;;2.30;1.20;;;28.60;64.80;;;;;;4976172;28;20419;-79
2022/08/08 07:01:28;;;;;;;7.93;1.40;;;29.00;62.90;;;;;;4975304;28;20551;-80
2022/08/08 07:04:00;;;;;;;3.25;1.30;;;29.10;62.60;;;;;;4976724;28;20178;-80
2022/08/08 07:06:32;;;;;;;10.82;1.50;;;30.00;62.10;;;;;;4975537;28;20169;-80
2022/08/08 07:09:11;;;;;;;4.55;1.60;;;30.70;60.20;;;;;;4972811;28;20186;-80
2022/08/08 07:11:41;;;;;;;2.63;1.15;;;31.20;59.10;;;;;;4955969;29;20194;-80
2022/08/08 07:14:07;;;;;;;2.92;1.40;;;31.80;57.10;;;;;;4955984;29;20654;-80
2022/08/08 07:16:35;;;;;;;3.08;1.70;;;31.20;59.10;;;;;;4957148;29;20179;-79
2022/08/08 07:19:23;;;;;;;3.67;1.50;;;30.80;59.30;;;;;;4956247;29;20170;-79
2022/08/08 07:21:59;;;;;;;1.95;1.35;;;31.50;56.20;;;;;;4957029;29;20297;-79
2022/08/08 07:24:31;;;;;;;9.43;1.40;;;32.40;54.70;;;;;;4955642;29;20174;-80
2022/08/08 07:26:58;;;;;;;1.85;1.30;;;32.20;54.60;;;;;;4957112;29;20222;-79
2022/08/08 07:29:24;;;;;;;3.15;1.25;;;31.80;55.20;;;;;;4956395;29;20588;-78
2022/08/08 07:31:50;;;;;;;2.00;1.50;;;31.90;54.40;;;;;;4955614;29;20297;-79
2022/08/08 07:34:17;;;;;;;3.20;1.30;;;30.90;56.20;;;;;;4956770;29;20174;-78
2022/08/08 07:36:42;;;;;;;3.53;1.35;;;30.90;53.90;;;;;;4956957;29;20178;-78
2022/08/08 07:39:08;;;;;;;2.00;1.20;;;31.00;55.10;;;;;;4956578;29;20673;-78
2022/08/08 07:41:40;;;;;;;1.83;1.10;;;31.20;54.20;;;;;;4970190;28;20209;-78
2022/08/08 07:44:05;;;;;;;4.90;1.27;;;31.40;54.90;;;;;;4974851;28;20178;-78
2022/08/08 07:46:31;;;;;;;2.67;1.38;;;30.60;56.00;;;;;;4976431;28;20182;-81
2022/08/08 07:48:56;;;;;;;2.77;1.60;;;30.50;56.90;;;;;;4974160;28;20188;-78
2022/08/08 07:51:23;;;;;;;3.23;1.20;;;31.00;57.30;;;;;;4974825;28;20602;-78
2022/08/08 07:54:26;;;;;;;4.83;1.50;;;31.30;56.30;;;;;;4975037;28;20570;-78
2022/08/08 07:57:00;;;;;;;11.43;2.20;;;31.20;55.70;;;;;;4975905;28;20496;-79
2022/08/08 07:59:32;;;;;;;4.20;1.60;;;30.40;57.00;;;;;;4975302;28;20398;-78
2022/08/08 08:02:01;;;;;;;6.47;1.77;;;31.10;58.00;;;;;;4975429;28;20472;-81
2022/08/08 08:04:32;;;;;;;4.50;1.37;;;30.90;55.10;;;;;;4975701;28;20846;-78
2022/08/08 08:06:59;;;;;;;5.87;1.50;;;29.30;55.50;;;;;;4974553;28;20401;-79
2022/08/08 08:09:30;;;;;;;1.63;1.27;;;29.20;57.80;;;;;;4974984;28;20405;-78
2022/08/08 08:11:58;;;;;;;11.47;2.00;;;27.90;56.60;;;;;;4975573;28;20444;-78
2022/08/08 08:14:53;;;;;;;5.40;2.60;;;28.30;56.70;;;;;;4975704;28;20468;-78
2022/08/08 08:17:21;;;;;;;4.50;1.87;;;29.40;54.80;;;;;;4975608;28;20409;-78
2022/08/08 08:19:48;;;;;;;2.13;1.30;;;29.20;54.60;;;;;;4974885;28;20416;-78
2022/08/08 08:22:15;;;;;;;6.90;1.50;;;30.30;55.40;;;;;;4981778;28;20465;-86
2022/08/08 08:24:41;;;;;;;2.80;1.50;;;30.30;53.30;;;;;;4998041;28;20457;-84
2022/08/08 08:27:06;;;;;;;1.60;1.43;;;29.00;55.70;;;;;;4999956;28;20413;-84
2022/08/08 08:29:32;;;;;;;2.73;1.70;;;28.30;57.70;;;;;;4999652;28;20405;-87
2022/08/08 08:31:58;;;;;;;17.03;1.50;;;27.90;58.50;;;;;;4989414;28;20197;-76
2022/08/08 08:34:24;;;;;;;1.90;1.60;;;27.20;58.90;;;;;;4975056;28;20201;-76
2022/08/08 08:36:49;;;;;;;2.57;1.60;;;27.00;59.60;;;;;;4975053;28;20264;-76
2022/08/08 08:39:15;;;;;;;6.00;1.60;;;27.60;59.70;;;;;;4973239;28;20496;-78
2022/08/08 08:41:41;;;;;;;3.27;1.37;;;27.90;59.60;;;;;;4958983;28;20830;-77
2022/08/08 08:44:09;;;;;;;3.97;1.80;;;28.80;56.90;;;;;;4955589;29;20222;-80
2022/08/08 08:46:36;;;;;;;3.20;2.00;;;27.80;56.80;;;;;;4954338;29;20418;-76
2022/08/08 08:49:01;;;;;;;2.87;1.40;;;26.90;58.80;;;;;;4954746;29;20406;-78
2022/08/08 08:51:28;;;;;;;2.43;1.60;;;26.40;59.90;;;;;;4955514;29;20440;-76
2022/08/08 08:53:54;;;;;;;2.07;1.23;;;26.70;59.50;;;;;;4955502;29;20245;-76
2022/08/08 08:56:24;;;;;;;2.57;1.30;;;26.80;59.40;;;;;;4955326;29;20399;-77
2022/08/08 08:58:50;;;;;;;10.07;1.83;;;27.10;59.30;;;;;;4954988;29;20485;-77
2022/08/08 09:01:18;;;;;;;4.07;1.50;;;26.60;59.30;;;;;;4955109;29;20477;-79
2022/08/08 09:03:49;;;;;;;1.43;1.33;;;26.70;59.40;;;;;;4955174;29;20414;-76
2022/08/08 09:06:19;;;;;;;1.80;1.60;;;26.50;59.50;;;;;;4954407;28;20399;-77
2022/08/08 09:08:49;;;;;;;1.43;1.30;;;25.20;61.40;;;;;;4955939;28;20406;-77
2022/08/08 09:11:16;;;;;;;2.27;1.50;;;25.30;62.00;;;;;;4972715;28;20883;-77
2022/08/08 09:13:44;;;;;;;4.50;1.30;;;25.70;61.10;;;;;;4974190;28;20418;-80
2022/08/08 09:16:10;;;;;;;1.50;1.30;;;26.50;60.20;;;;;;4973957;28;20512;-76
2022/08/08 09:18:36;;;;;;;4.37;1.80;;;26.10;60.10;;;;;;4973354;28;20767;-77
2022/08/08 09:21:02;;;;;;;2.60;1.30;;;26.00;61.70;;;;;;4973937;28;20991;-76
2022/08/08 09:23:29;;;;;;;1.67;1.57;;;25.70;61.40;;;;;;4972770;28;20692;-76
2022/08/08 09:26:25;;;;;;;3.73;1.60;;;25.70;61.80;;;;;;4973802;28;20440;-76
2022/08/08 09:28:51;;;;;;;2.13;1.43;;;26.20;61.20;;;;;;4968877;28;20549;-77
2022/08/08 09:31:51;;;;;;;3.80;1.80;;;26.60;59.90;;;;;;4972462;28;20860;-77
2022/08/08 09:34:18;;;;;;;1.60;1.30;;;26.90;60.50;;;;;;4973742;28;20422;-76
2022/08/08 09:36:45;;;;;;;1.50;1.33;;;27.20;60.50;;;;;;4973879;28;20460;-77
2022/08/08 09:39:15;;;;;;;3.47;1.80;;;26.70;60.10;;;;;;4973136;28;20409;-76
2022/08/08 09:41:42;;;;;;;4.30;1.67;;;26.70;61.00;;;;;;4957614;28;20463;-76
2022/08/08 09:44:28;;;;;;;1.90;1.43;;;27.20;59.70;;;;;;4954335;29;20415;-77
2022/08/08 09:46:55;;;;;;;3.03;1.70;;;26.60;58.90;;;;;;4954309;29;20417;-79
2022/08/08 09:49:21;;;;;;;1.83;1.43;;;25.90;59.80;;;;;;4953796;28;20469;-77
2022/08/08 09:51:52;;;;;;;1.60;1.50;;;26.50;59.50;;;;;;4954174;29;20898;-77
2022/08/08 09:54:21;;;;;;;2.67;1.40;;;26.10;59.90;;;;;;4952870;29;20441;-80
2022/08/08 09:56:53;;;;;;;1.70;1.30;;;26.20;60.60;;;;;;4954237;29;20518;-77
2022/08/08 09:59:28;;;;;;;2.33;1.60;;;26.10;60.20;;;;;;4953678;29;20406;-77
2022/08/08 10:01:58;;;;;;;2.80;1.60;;;26.20;60.50;;;;;;4952633;29;21061;-77
2022/08/08 10:04:26;;;;;;;2.07;1.30;;;25.60;61.30;;;;;;4953982;29;20438;-77
2022/08/08 10:06:52;;;;;;;2.80;1.20;;;26.00;61.30;;;;;;4954060;29;20474;-77
2022/08/08 10:09:29;;;;;;;1.23;1.10;;;26.00;60.30;;;;;;4959251;28;20414;-77
2022/08/08 10:11:55;;;;;;;2.30;1.43;;;25.90;61.40;;;;;;4973216;28;20437;-77
2022/08/08 10:14:33;;;;;;;3.83;1.40;;;25.30;62.00;;;;;;4973899;28;20500;-78
2022/08/08 10:16:58;;;;;;;1.60;1.40;;;25.80;61.20;;;;;;4973618;28;20174;-78
2022/08/08 10:19:34;;;;;;;1.60;1.13;;;25.90;60.10;;;;;;4974004;28;20476;-77
2022/08/08 11:17:40;;;;;;;3.00;1.10;;;27.20;59.80;;;;;;5743987;23;20588;-79
2022/08/08 11:20:08;;;;;;;1.80;1.30;;;27.80;59.40;;;;;;4956289;28;20403;-78
2022/08/08 11:22:34;;;;;;;2.53;1.20;;;26.30;59.60;;;;;;4956691;28;20477;-78
2022/08/08 11:25:06;;;;;;;3.20;1.60;;;26.00;61.00;;;;;;4956725;28;20406;-78
2022/08/08 11:27:33;;;;;;;2.70;1.30;;;26.30;60.90;;;;;;4956775;28;20394;-78
2022/08/08 11:30:00;;;;;;;3.23;1.23;;;26.30;61.50;;;;;;4955679;28;20402;-79
2022/08/08 11:32:30;;;;;;;1.43;1.03;;;26.10;60.50;;;;;;4956570;28;20490;-78
2022/08/08 11:35:10;;;;;;;5.83;1.20;;;26.50;60.30;;;;;;4955415;29;20465;-78
2022/08/08 11:37:37;;;;;;;5.07;1.57;;;26.70;61.30;;;;;;4956607;28;20875;-78
2022/08/08 11:40:05;;;;;;;4.50;1.40;;;26.80;60.30;;;;;;4958669;28;20500;-78
2022/08/08 11:42:31;;;;;;;2.13;1.43;;;26.10;59.80;;;;;;4975630;28;20496;-78
2022/08/08 11:44:57;;;;;;;1.67;1.27;;;26.50;60.90;;;;;;4975680;28;20448;-78
2022/08/08 11:47:24;;;;;;;8.23;1.47;;;27.00;61.10;;;;;;4975616;28;20405;-78
2022/08/08 11:49:52;;;;;;;2.60;1.20;;;26.70;61.90;;;;;;4974948;28;20405;-79
2022/08/08 11:52:18;;;;;;;2.90;1.20;;;26.80;59.90;;;;;;4975525;28;20990;-78
2022/08/08 11:54:44;;;;;;;4.07;1.30;;;26.80;59.60;;;;;;4975387;28;20417;-80
2022/08/08 11:57:19;;;;;;;5.70;1.30;;;27.00;59.60;;;;;;4975558;28;20409;-79
2022/08/08 11:59:54;;;;;;;2.93;1.10;;;27.40;59.80;;;;;;4974981;28;20803;-78
2022/08/08 12:02:21;;;;;;;4.20;1.30;;;26.80;57.30;;;;;;4974134;28;20692;-78
2022/08/08 12:04:47;;;;;;;2.30;1.20;;;26.70;58.50;;;;;;4975284;28;20416;-78
2022/08/08 12:07:12;;;;;;;1.90;1.20;;;26.80;59.40;;;;;;4975353;28;20417;-79
2022/08/08 12:09:38;;;;;;;2.60;1.10;;;27.30;58.10;;;;;;4966049;28;20772;-78
2022/08/08 12:12:04;;;;;;;2.03;1.10;;;26.80;59.70;;;;;;4955982;28;20190;-78
2022/08/08 12:14:29;;;;;;;1.43;1.10;;;27.10;57.90;;;;;;4955884;29;20245;-78
2022/08/08 12:16:56;;;;;;;3.33;1.67;;;26.40;58.20;;;;;;4955785;29;20646;-79
2022/08/08 12:19:23;;;;;;;1.80;1.53;;;26.00;59.50;;;;;;4955310;28;20167;-78
2022/08/08 12:21:49;;;;;;;2.27;1.37;;;26.00;60.10;;;;;;4954391;28;20481;-78
2022/08/08 12:24:18;;;;;;;2.00;1.70;;;25.60;59.90;;;;;;4954443;28;20465;-79
2022/08/08 12:26:46;;;;;;;4.70;1.37;;;26.10;60.90;;;;;;4955743;28;20445;-78
2022/08/08 12:29:30;;;;;;;2.13;1.50;;;26.90;59.60;;;;;;4955060;28;20425;-78
2022/08/08 12:32:01;;;;;;;2.77;1.30;;;27.40;59.40;;;;;;4955439;29;20942;-78
2022/08/08 12:34:42;;;;;;;1.83;1.33;;;27.40;58.60;;;;;;4955444;28;20410;-78
2022/08/08 12:37:18;;;;;;;3.43;1.20;;;26.50;59.80;;;;;;4954207;29;20430;-78
2022/08/08 12:39:43;;;;;;;3.10;1.27;;;26.40;59.90;;;;;;4955077;28;20815;-78
2022/08/08 12:42:09;;;;;;;2.93;1.30;;;26.60;61.00;;;;;;4973636;28;20453;-78
2022/08/08 12:44:35;;;;;;;2.50;1.10;;;26.80;59.60;;;;;;4974598;28;20174;-78
2022/08/08 12:47:03;;;;;;;3.70;1.30;;;27.20;59.40;;;;;;4974659;28;20166;-78
2022/08/08 12:49:31;;;;;;;4.57;1.40;;;27.90;61.00;;;;;;4973955;28;20413;-78
2022/08/08 12:51:57;;;;;;;4.80;1.13;;;28.30;57.40;;;;;;4974390;28;20967;-78
2022/08/08 12:54:28;;;;;;;2.13;1.30;;;27.60;57.70;;;;;;4974286;28;20487;-78
2022/08/08 12:56:54;;;;;;;9.90;1.33;;;27.90;58.60;;;;;;4974440;28;20408;-80
2022/08/08 12:59:23;;;;;;;1.97;1.30;;;27.90;58.10;;;;;;4973771;28;20481;-78
2022/08/08 13:01:57;;;;;;;1.33;1.23;;;27.50;58.40;;;;;;4974237;28;20260;-78
2022/08/08 13:04:25;;;;;;;3.63;1.40;;;26.90;58.40;;;;;;4974182;28;20413;-79
2022/08/08 13:06:58;;;;;;;3.43;1.30;;;26.90;59.10;;;;;;4974219;28;20436;-78
2022/08/08 13:10:05;;;;;;;3.20;1.30;;;26.60;59.10;;;;;;4966782;28;20409;-78
2022/08/08 13:12:37;;;;;;;8.50;1.90;;;26.60;59.90;;;;;;4954177;28;20561;-80
2022/08/08 13:15:11;;;;;;;2.87;1.13;;;26.50;59.20;;;;;;4954912;28;20414;-80
2022/08/08 13:17:37;;;;;;;4.33;1.40;;;26.80;60.10;;;;;;4954729;28;20438;-78
2022/08/08 13:20:10;;;;;;;3.10;1.30;;;27.50;59.50;;;;;;4952970;28;20521;-80
2022/08/08 13:22:36;;;;;;;3.20;1.27;;;27.90;59.40;;;;;;4954767;28;20449;-78
2022/08/08 13:25:03;;;;;;;4.10;1.30;;;28.00;58.80;;;;;;4954645;29;20545;-78
2022/08/08 13:27:30;;;;;;;4.00;1.37;;;28.00;58.90;;;;;;4954649;28;20171;-78
2022/08/08 13:29:58;;;;;;;1.93;1.03;;;28.00;57.30;;;;;;4954132;28;20418;-81
2022/08/08 13:32:25;;;;;;;2.30;1.30;;;27.30;57.90;;;;;;4954606;28;20461;-79
2022/08/08 13:34:54;;;;;;;2.77;1.40;;;26.90;57.70;;;;;;4954454;28;20465;-77
2022/08/08 13:37:21;;;;;;;6.93;1.00;;;26.80;57.50;;;;;;4954501;28;20522;-80
2022/08/08 13:39:49;;;;;;;2.80;1.00;;;27.40;58.90;;;;;;4954498;28;20422;-77
2022/08/08 13:42:16;;;;;;;1.30;1.20;;;27.70;57.50;;;;;;4973566;28;20512;-77
2022/08/08 13:44:41;;;;;;;1.63;1.37;;;27.60;57.40;;;;;;4973638;28;20413;-81
2022/08/08 13:47:07;;;;;;;2.40;1.60;;;27.20;57.00;;;;;;4973542;28;20792;-77
2022/08/08 13:49:32;;;;;;;2.63;1.10;;;27.00;59.30;;;;;;4972893;28;20186;-77
2022/08/08 13:52:04;;;;;;;1.67;1.10;;;27.20;58.90;;;;;;4973271;28;20200;-80
2022/08/08 13:54:32;;;;;;;4.27;1.40;;;27.10;59.00;;;;;;4973431;28;20170;-77
2022/08/08 13:56:59;;;;;;;5.07;1.30;;;27.20;59.60;;;;;;4973451;28;20437;-80
2022/08/08 13:59:29;;;;;;;2.50;1.30;;;27.70;60.40;;;;;;4972902;28;20424;-77
2022/08/08 14:01:55;;;;;;;1.57;1.20;;;27.80;57.80;;;;;;4973423;28;20551;-78
2022/08/08 14:04:21;;;;;;;7.83;1.40;;;27.50;58.40;;;;;;4973417;28;20443;-79
2022/08/08 14:06:47;;;;;;;3.47;1.87;;;27.80;58.30;;;;;;4972299;28;20169;-77
2022/08/08 14:09:13;;;;;;;2.60;1.37;;;28.30;57.50;;;;;;4967403;28;20457;-78
2022/08/08 14:11:39;;;;;;;2.30;1.33;;;28.10;56.60;;;;;;4952798;29;20197;-78
2022/08/08 14:14:04;;;;;;;2.00;1.20;;;27.70;57.90;;;;;;4953996;29;20418;-77
2022/08/08 14:16:30;;;;;;;2.00;1.30;;;27.90;59.10;;;;;;4954006;29;20221;-77
2022/08/08 14:18:58;;;;;;;9.10;1.73;;;28.20;57.60;;;;;;4953324;28;20265;-77
2022/08/08 14:21:43;;;;;;;4.93;1.30;;;28.20;58.10;;;;;;4953697;28;20200;-78
2022/08/08 14:24:09;;;;;;;2.43;1.10;;;27.60;56.90;;;;;;4953934;28;20398;-77
2022/08/08 14:26:44;;;;;;;7.13;1.23;;;27.10;57.70;;;;;;4953794;29;20412;-77
2022/08/08 14:29:20;;;;;;;1.53;1.40;;;26.90;58.70;;;;;;4953417;28;20151;-80
2022/08/08 14:31:50;;;;;;;2.00;1.40;;;26.90;60.00;;;;;;4953816;28;20437;-77
2022/08/08 14:34:16;;;;;;;1.93;1.30;;;26.90;60.00;;;;;;4953785;28;20418;-79
2022/08/08 14:36:42;;;;;;;2.43;1.40;;;27.20;60.00;;;;;;4953803;29;20422;-77
2022/08/08 14:39:07;;;;;;;14.77;1.57;;;27.80;59.20;;;;;;4953252;29;20170;-77
2022/08/08 14:41:41;;;;;;;2.77;1.20;;;28.20;57.30;;;;;;4968268;28;20212;-77
2022/08/08 14:44:08;;;;;;;7.33;1.30;;;28.00;58.80;;;;;;4973646;28;20298;-77
2022/08/08 14:46:34;;;;;;;5.20;1.60;;;27.50;57.50;;;;;;4973241;28;20925;-80
2022/08/08 14:49:02;;;;;;;4.60;1.40;;;27.80;58.70;;;;;;4972808;28;20420;-77
2022/08/08 14:51:40;;;;;;;3.97;1.00;;;27.60;57.40;;;;;;4971853;28;20198;-79
2022/08/08 14:54:06;;;;;;;7.10;1.63;;;27.70;58.50;;;;;;4973084;28;20756;-77
2022/08/08 14:56:34;;;;;;;1.27;1.07;;;27.50;58.10;;;;;;4972833;28;20927;-77
2022/08/08 14:58:59;;;;;;;3.50;1.20;;;26.80;59.20;;;;;;4972401;28;20253;-77
2022/08/08 15:01:30;;;;;;;1.83;1.20;;;26.90;59.60;;;;;;4972665;28;20516;-79
2022/08/08 15:03:56;;;;;;;1.57;1.00;;;27.30;58.80;;;;;;4972953;28;20150;-77
2022/08/08 15:06:22;;;;;;;1.57;1.10;;;27.10;57.70;;;;;;4976465;28;20448;-77
2022/08/08 15:08:47;;;;;;;1.87;1.17;;;26.70;58.90;;;;;;4973933;28;20880;-78
2022/08/08 15:11:12;;;;;;;8.30;1.30;;;26.70;58.70;;;;;;4956822;29;20194;-77
2022/08/08 15:13:39;;;;;;;3.67;1.13;;;26.70;58.00;;;;;;4957075;29;20810;-77
2022/08/08 15:16:07;;;;;;;2.20;1.37;;;27.00;58.80;;;;;;4957050;28;20232;-77
2022/08/08 15:18:33;;;;;;;1.30;1.17;;;27.20;57.80;;;;;;4956379;28;20424;-78
2022/08/08 15:20:58;;;;;;;6.70;1.43;;;27.30;58.80;;;;;;4956799;28;20465;-77
2022/08/08 15:23:24;;;;;;;1.60;1.13;;;27.50;57.60;;;;;;4956791;29;20489;-77
2022/08/08 15:25:49;;;;;;;7.83;1.50;;;27.40;59.50;;;;;;4956689;29;20179;-79
2022/08/08 15:28:15;;;;;;;6.23;1.30;;;27.50;58.30;;;;;;4956287;29;20183;-77
2022/08/08 15:30:40;;;;;;;7.57;1.60;;;27.20;60.40;;;;;;4956685;29;20670;-77
2022/08/08 15:33:06;;;;;;;7.13;1.00;;;26.90;59.30;;;;;;4956518;29;20241;-77
2022/08/08 15:35:34;;;;;;;4.80;1.10;;;26.80;59.40;;;;;;4956611;28;20174;-81
2022/08/08 15:37:59;;;;;;;4.03;1.20;;;26.70;60.40;;;;;;4956084;28;20171;-78
2022/08/08 15:40:25;;;;;;;4.47;1.50;;;26.60;60.50;;;;;;4961831;28;20421;-77
2022/08/08 15:42:50;;;;;;;6.67;1.33;;;26.70;60.00;;;;;;4975779;28;20241;-77
2022/08/08 15:45:16;;;;;;;5.53;1.10;;;26.90;59.80;;;;;;4975791;28;20185;-81
2022/08/08 15:47:41;;;;;;;4.40;1.33;;;26.80;59.90;;;;;;4975677;28;20181;-77
2022/08/08 15:50:07;;;;;;;7.70;1.13;;;26.50;59.80;;;;;;4975114;28;20298;-77
2022/08/08 15:52:33;;;;;;;1.37;1.10;;;26.10;61.20;;;;;;4975614;28;20241;-77
2022/08/08 15:54:58;;;;;;;1.60;1.10;;;26.10;59.80;;;;;;4975501;28;20232;-80
2022/08/08 15:57:24;;;;;;;1.53;1.10;;;26.10;60.10;;;;;;4975675;28;20205;-77
2022/08/08 15:59:50;;;;;;;2.07;1.50;;;25.90;60.20;;;;;;4975075;28;20538;-77
2022/08/08 16:02:16;;;;;;;1.37;1.27;;;25.60;60.30;;;;;;4975352;28;20293;-77
2022/08/08 16:04:41;;;;;;;2.70;1.37;;;25.40;60.40;;;;;;4975300;28;20504;-78
2022/08/08 16:07:06;;;;;;;1.63;1.00;;;25.60;60.30;;;;;;4975391;28;20225;-77
2022/08/08 16:09:32;;;;;;;1.20;1.10;;;25.70;59.90;;;;;;4965459;28;20498;-77
2022/08/08 16:11:58;;;;;;;2.97;1.37;;;26.00;59.80;;;;;;4955967;29;20631;-78
2022/08/08 16:14:24;;;;;;;2.63;1.07;;;26.00;60.30;;;;;;4958768;29;20179;-79
2022/08/08 16:16:50;;;;;;;2.47;1.37;;;25.80;61.70;;;;;;4960112;28;20246;-79
2022/08/08 16:19:16;;;;;;;3.00;1.27;;;26.00;61.60;;;;;;4955204;28;20264;-78
2022/08/08 16:21:41;;;;;;;5.20;1.20;;;25.70;61.90;;;;;;4955724;29;20521;-78
2022/08/08 16:24:10;;;;;;;2.00;1.40;;;25.50;60.70;;;;;;4955735;29;20178;-78
2022/08/08 16:26:38;;;;;;;3.80;1.50;;;25.50;60.90;;;;;;4955714;28;20175;-79
2022/08/08 16:29:11;;;;;;;3.67;1.57;;;25.60;60.90;;;;;;4955135;28;20497;-78
2022/08/08 16:31:40;;;;;;;3.63;1.27;;;25.70;60.90;;;;;;4955613;28;20786;-78
2022/08/08 16:34:06;;;;;;;2.90;1.43;;;26.00;60.40;;;;;;4955528;28;20421;-78
2022/08/08 16:36:32;;;;;;;5.27;1.37;;;25.60;61.30;;;;;;4955610;28;20402;-80
2022/08/08 16:38:57;;;;;;;3.40;1.40;;;25.60;61.10;;;;;;4954911;29;20171;-78
2022/08/08 16:41:23;;;;;;;8.13;1.40;;;25.50;62.00;;;;;;4968683;28;20193;-78
2022/08/08 16:43:49;;;;;;;7.50;1.53;;;25.70;61.90;;;;;;4974656;28;20197;-80
2022/08/08 16:46:14;;;;;;;7.07;1.30;;;25.60;61.50;;;;;;4974510;28;20170;-78
2022/08/08 16:48:40;;;;;;;7.87;1.30;;;25.50;61.20;;;;;;4974070;28;20436;-78
2022/08/08 16:51:05;;;;;;;5.53;1.60;;;25.30;61.50;;;;;;4974473;28;20198;-78
2022/08/08 16:53:31;;;;;;;2.60;1.10;;;25.30;61.50;;;;;;4974550;28;20610;-78
2022/08/08 16:55:56;;;;;;;3.50;1.40;;;25.40;62.70;;;;;;4973150;28;20601;-78
2022/08/08 16:58:23;;;;;;;4.63;1.40;;;25.10;62.20;;;;;;4973931;28;20672;-78
2022/08/08 17:00:49;;;;;;;3.10;1.27;;;25.20;62.20;;;;;;4974345;28;20639;-80
2022/08/08 17:03:15;;;;;;;1.40;0.90;;;25.10;62.40;;;;;;4974319;28;20460;-78
2022/08/08 17:05:40;;;;;;;3.57;1.50;;;25.00;62.10;;;;;;4974317;28;20213;-78
2022/08/08 17:08:06;;;;;;;3.87;1.50;;;25.00;64.00;;;;;;4973784;28;20174;-78
2022/08/08 17:10:31;;;;;;;7.13;1.10;;;24.80;62.40;;;;;;4958387;28;20207;-78
2022/08/08 17:12:57;;;;;;;3.90;1.60;;;24.60;63.30;;;;;;4954954;28;20186;-78
2022/08/08 17:15:22;;;;;;;2.03;1.43;;;24.60;63.40;;;;;;4955099;29;20716;-79
2022/08/08 17:17:48;;;;;;;3.33;1.30;;;24.60;63.70;;;;;;4958490;29;20190;-79
2022/08/08 17:20:14;;;;;;;7.10;1.00;;;24.40;64.00;;;;;;4958364;29;20174;-80
2022/08/08 17:22:40;;;;;;;3.30;1.30;;;24.40;64.10;;;;;;4958514;29;20462;-80
2022/08/08 17:25:07;;;;;;;8.20;1.43;;;24.50;63.90;;;;;;4958184;28;20258;-79
2022/08/08 17:27:32;;;;;;;4.30;1.60;;;24.30;63.50;;;;;;4958027;28;20414;-80
2022/08/08 17:29:58;;;;;;;7.23;1.60;;;24.10;64.00;;;;;;4959445;29;20410;-79
2022/08/08 17:32:23;;;;;;;1.20;1.10;;;24.10;63.90;;;;;;4960410;29;20213;-79
2022/08/08 17:34:54;;;;;;;3.10;1.77;;;24.10;64.10;;;;;;4959991;29;20254;-80
2022/08/08 17:37:20;;;;;;;2.70;1.67;;;23.90;64.60;;;;;;4955531;29;20175;-79
2022/08/08 17:39:46;;;;;;;6.20;1.33;;;23.70;64.90;;;;;;4956806;28;20437;-79
2022/08/08 17:42:11;;;;;;;2.10;1.50;;;23.50;65.60;;;;;;4976626;28;20973;-80
2022/08/08 17:44:37;;;;;;;1.90;1.10;;;23.50;65.90;;;;;;4975962;28;20174;-80
2022/08/08 17:47:03;;;;;;;2.03;1.33;;;23.50;65.50;;;;;;4976609;28;20654;-80
2022/08/08 17:49:31;;;;;;;3.90;1.40;;;23.50;65.80;;;;;;4975970;28;20261;-80